aviador You're here:

KCNK Decoded Metar

CONCORDIA in KS, USA
Report Time2018-06-18 14:55:00
UTC Time2018-06-18 15:27:13
Flight Rules vfr VFR
Wind200° at 18 Gusting to 26 kt
W.Decomp.*RWY 21: 17.3 kt HW 5 kt LCW
RWY 17: 16.4 kt HW 7.3 kt RCW
RWY 12: 5.0 kt HW 17.3 kt RCW
W.Rank200° ranks 6
Current wind is above 200° avg. (11.8)
Visibility9999 m
Phenomena:N/A
Clouds:Few 095 Hf
Expected CloudBase > 3,600 ft AGL from Temp-Dew spread
CeilingNone
Temp30°C (ISA +18)
Dew Point21°C (59% RH)
Heat Index32.6°C
AAT27.8°C
QNH1014 hPa
Density Alt3,816 ft
Elevation1,467 ft
Report Wrong Elevation
Raw Report
KCNK 181455Z AUTO 20018G26KT 10SM FEW095 30/21 A2995 RMK AO2 PK
WND 21026/1446 SLP121 T03000206 51006 TSNO=

Extra information for KCNK:More info

Metar Taf Metar & Taf Last 4 Metars F.Rules Stats Wind Profile Meteogram Temp Stats Airport Information Weather charts Add Link Nearby VenuesMetar ALERT Operation Metar Decoded Social comments

AIRNAV info for KCNK